createdAt,value
2022-11-10T00:01:07.896Z,12.90
2022-11-10T00:03:35.768Z,13.80
2022-11-10T00:06:04.106Z,9.90
2022-11-10T00:08:30.651Z,8.40
2022-11-10T00:11:01.399Z,8.90
2022-11-10T00:13:35.143Z,15.43
2022-11-10T00:16:22.204Z,5.77
2022-11-10T00:18:48.908Z,8.20
2022-11-10T00:21:17.186Z,6.53
2022-11-10T00:23:45.060Z,7.17
2022-11-10T00:26:19.674Z,7.60
2022-11-10T00:28:46.074Z,13.13
2022-11-10T00:31:13.156Z,6.87
2022-11-10T00:33:42.440Z,11.00
2022-11-10T00:36:09.527Z,4.27
2022-11-10T00:38:36.230Z,4.40
2022-11-10T00:41:03.116Z,14.03
2022-11-10T00:43:30.474Z,8.77
2022-11-10T00:45:57.174Z,4.50
2022-11-10T00:48:23.672Z,5.33
2022-11-10T00:50:50.406Z,5.70
2022-11-10T00:53:16.949Z,5.97
2022-11-10T00:55:43.588Z,4.43
2022-11-10T00:58:10.059Z,5.43
2022-11-10T01:00:36.618Z,3.23
2022-11-10T01:03:03.502Z,5.80
2022-11-10T01:05:30.724Z,5.70
2022-11-10T01:07:59.448Z,6.83
2022-11-10T01:10:26.683Z,3.60
2022-11-10T01:12:53.243Z,4.87
2022-11-10T01:15:25.956Z,5.13
2022-11-10T01:17:55.116Z,3.40
2022-11-10T01:20:21.832Z,6.60
2022-11-10T01:22:48.227Z,8.03
2022-11-10T01:25:14.685Z,4.57
2022-11-10T01:27:41.110Z,6.47
2022-11-10T01:30:07.922Z,3.40
2022-11-10T01:32:34.408Z,5.37
2022-11-10T01:35:00.812Z,3.37
2022-11-10T01:37:27.396Z,6.90
2022-11-10T01:39:53.870Z,3.80
2022-11-10T01:42:29.645Z,5.50
2022-11-10T01:45:23.751Z,6.90
2022-11-10T01:47:53.595Z,3.30
2022-11-10T01:50:23.398Z,8.53
2022-11-10T01:52:53.932Z,5.73
2022-11-10T01:55:20.724Z,2.47
2022-11-10T01:57:47.435Z,5.90
2022-11-10T02:00:14.314Z,4.83
2022-11-10T02:03:00.949Z,3.20
2022-11-10T02:05:27.323Z,4.10
2022-11-10T02:07:55.991Z,5.57
2022-11-10T02:10:22.771Z,7.87
2022-11-10T02:12:50.159Z,4.87
2022-11-10T02:15:18.292Z,5.17
2022-11-10T02:17:47.097Z,4.70
2022-11-10T02:20:16.873Z,4.37
2022-11-10T02:22:43.931Z,3.30
2022-11-10T02:25:13.973Z,5.83
2022-11-10T02:27:40.455Z,4.13
2022-11-10T02:30:07.814Z,3.10
2022-11-10T02:32:34.263Z,6.33
2022-11-10T02:35:00.685Z,3.03
2022-11-10T02:37:27.107Z,3.93
2022-11-10T02:39:53.545Z,10.73
2022-11-10T02:42:19.980Z,6.70
2022-11-10T02:44:46.910Z,9.47
2022-11-10T02:47:13.389Z,3.23
2022-11-10T02:49:39.815Z,2.27
2022-11-10T02:52:06.256Z,2.73
2022-11-10T02:54:32.664Z,7.27
2022-11-10T02:56:59.112Z,7.40
2022-11-10T02:59:25.538Z,4.10
2022-11-10T03:01:51.970Z,7.43
2022-11-10T03:04:18.428Z,6.43
2022-11-10T03:06:45.088Z,3.70
2022-11-10T03:09:11.807Z,4.33
2022-11-10T03:11:38.218Z,5.53
2022-11-10T03:14:04.670Z,4.03
2022-11-10T03:16:31.087Z,5.80
2022-11-10T03:18:57.621Z,4.33
2022-11-10T03:21:24.026Z,6.13
2022-11-10T03:23:50.492Z,5.60
2022-11-10T03:26:16.928Z,3.30
2022-11-10T03:28:43.395Z,3.73
2022-11-10T03:31:09.899Z,9.20
2022-11-10T03:33:36.478Z,2.80
2022-11-10T03:36:03.240Z,3.03
2022-11-10T03:38:29.719Z,2.93
2022-11-10T03:43:42.673Z,5.80
2022-11-10T03:46:09.404Z,3.87
2022-11-10T03:48:35.834Z,5.87
2022-11-10T03:51:02.224Z,6.80
2022-11-10T03:53:28.726Z,6.93
2022-11-10T03:55:55.150Z,5.97
2022-11-10T03:58:21.523Z,3.07
2022-11-10T04:00:47.900Z,4.50
2022-11-10T04:03:14.330Z,4.13
2022-11-10T04:05:59.189Z,5.23
2022-11-10T04:08:43.931Z,3.80
2022-11-10T04:11:10.326Z,6.13
2022-11-10T04:13:55.403Z,6.10
2022-11-10T04:16:21.803Z,6.93
2022-11-10T04:18:48.203Z,5.83
2022-11-10T04:21:14.991Z,4.50
2022-11-10T04:23:41.418Z,7.67
2022-11-10T04:26:28.862Z,7.47
2022-11-10T04:28:57.990Z,3.47
2022-11-10T04:31:26.682Z,7.63
2022-11-10T04:33:54.607Z,3.87
2022-11-10T04:36:23.809Z,10.47
2022-11-10T04:38:50.536Z,4.10
2022-11-10T04:41:17.390Z,5.83
2022-11-10T04:43:43.945Z,4.83
2022-11-10T04:46:20.477Z,5.67
2022-11-10T04:48:46.927Z,4.13
2022-11-10T04:51:14.151Z,6.30
2022-11-10T04:53:40.643Z,7.73
2022-11-10T04:56:07.183Z,9.03
2022-11-10T04:58:33.611Z,5.27
2022-11-10T05:01:00.100Z,3.83
2022-11-10T05:03:26.689Z,4.37
2022-11-10T05:05:53.258Z,5.93
2022-11-10T05:08:19.717Z,4.80
2022-11-10T05:10:46.189Z,4.07
2022-11-10T05:13:12.591Z,6.93
2022-11-10T05:15:41.396Z,3.10
2022-11-10T05:18:08.233Z,4.37
2022-11-10T05:20:34.663Z,4.57
2022-11-10T05:23:20.015Z,4.70
2022-11-10T05:25:46.656Z,5.80
2022-11-10T05:28:13.447Z,8.10
2022-11-10T05:30:40.447Z,6.23
2022-11-10T05:33:07.084Z,5.07
2022-11-10T05:35:34.593Z,6.97
2022-11-10T05:38:01.491Z,5.73
2022-11-10T05:40:28.562Z,5.77
2022-11-10T05:42:55.065Z,6.10
2022-11-10T05:45:23.761Z,5.83
2022-11-10T05:47:50.887Z,5.53
2022-11-10T05:50:19.584Z,6.20
2022-11-10T05:52:50.324Z,6.33
2022-11-10T05:55:19.531Z,5.20
2022-11-10T05:57:47.322Z,7.40
2022-11-10T06:00:16.981Z,5.10
2022-11-10T06:02:44.208Z,6.87
2022-11-10T06:05:11.154Z,8.70
2022-11-10T06:07:40.535Z,7.20
2022-11-10T06:10:07.440Z,7.37
2022-11-10T06:12:33.902Z,6.90
2022-11-10T06:15:00.425Z,6.97
2022-11-10T06:17:26.904Z,5.80
2022-11-10T06:19:53.321Z,6.00
2022-11-10T06:22:19.765Z,6.47
2022-11-10T06:24:46.763Z,5.30
2022-11-10T06:27:13.218Z,4.80
2022-11-10T06:29:39.609Z,4.53
2022-11-10T06:32:06.124Z,4.23
2022-11-10T06:34:32.495Z,7.20
2022-11-10T06:36:58.874Z,8.07
2022-11-10T06:39:25.294Z,4.90
2022-11-10T06:41:51.653Z,4.53
2022-11-10T06:44:18.141Z,8.60
2022-11-10T06:46:44.510Z,5.23
2022-11-10T06:49:10.937Z,6.17
2022-11-10T06:51:37.551Z,8.63
2022-11-10T06:54:04.199Z,8.73
2022-11-10T06:56:30.634Z,8.43
2022-11-10T06:58:57.067Z,6.47
2022-11-10T07:01:26.518Z,4.30
2022-11-10T07:04:18.121Z,7.60
2022-11-10T07:06:39.955Z,7.83
2022-11-10T07:09:06.743Z,8.13
2022-11-10T07:11:33.126Z,9.67
2022-11-10T07:13:59.526Z,8.40
2022-11-10T07:16:25.956Z,7.50
2022-11-10T07:18:52.366Z,8.63
2022-11-10T07:21:19.019Z,10.00
2022-11-10T07:23:46.822Z,6.30
2022-11-10T07:26:14.124Z,9.13
2022-11-10T07:28:40.511Z,5.50
2022-11-10T07:31:06.882Z,9.60
2022-11-10T07:33:33.266Z,6.27
2022-11-10T07:36:03.403Z,6.00
2022-11-10T07:38:30.028Z,8.67
2022-11-10T07:40:56.496Z,7.80
2022-11-10T07:43:25.242Z,10.27
2022-11-10T07:45:53.036Z,11.30
2022-11-10T07:48:19.747Z,19.00
2022-11-10T07:50:46.567Z,16.33
2022-11-10T07:53:19.993Z,18.50
2022-11-10T07:55:47.051Z,12.23
2022-11-10T07:58:16.143Z,14.60
2022-11-10T08:00:44.083Z,6.57
2022-11-10T08:03:19.092Z,10.80
2022-11-10T08:05:45.792Z,7.03
2022-11-10T08:08:12.459Z,6.67
2022-11-10T08:10:40.450Z,9.03
2022-11-10T08:13:09.029Z,10.27
2022-11-10T08:15:36.168Z,17.17
2022-11-10T08:18:18.202Z,14.00
2022-11-10T08:20:45.501Z,23.40
2022-11-10T08:23:12.378Z,25.63
2022-11-10T08:25:39.451Z,18.33
2022-11-10T08:28:10.504Z,14.40
2022-11-10T08:30:38.748Z,12.60
2022-11-10T08:33:06.982Z,12.00
2022-11-10T08:35:36.577Z,11.33
2022-11-10T08:38:11.560Z,12.13
2022-11-10T08:40:39.521Z,11.53
2022-11-10T08:43:07.530Z,7.73
2022-11-10T08:45:35.397Z,15.20
2022-11-10T08:48:05.243Z,12.90
2022-11-10T08:50:32.282Z,12.33
2022-11-10T08:53:03.525Z,9.70
2022-11-10T08:55:30.145Z,10.27
2022-11-10T08:58:01.114Z,6.90
2022-11-10T09:00:31.236Z,6.13
2022-11-10T09:03:05.220Z,10.20
2022-11-10T09:05:31.565Z,6.80
2022-11-10T09:07:58.001Z,7.60
2022-11-10T09:10:24.398Z,7.80
2022-11-10T09:12:51.270Z,10.10
2022-11-10T09:15:19.740Z,9.30
2022-11-10T09:17:46.193Z,9.17
2022-11-10T09:20:12.697Z,8.10
2022-11-10T09:22:39.773Z,15.00
2022-11-10T09:25:06.650Z,9.73
2022-11-10T09:27:38.754Z,7.27
2022-11-10T09:30:06.418Z,7.13
2022-11-10T09:32:33.226Z,6.67
2022-11-10T09:35:00.434Z,8.30
2022-11-10T09:37:27.478Z,6.97
2022-11-10T09:39:53.834Z,9.57
2022-11-10T09:42:33.938Z,9.63
2022-11-10T09:45:16.174Z,6.57
2022-11-10T09:48:01.761Z,7.37
2022-11-10T09:50:35.262Z,11.67
2022-11-10T09:53:02.683Z,5.10
2022-11-10T09:55:43.100Z,8.13
2022-11-10T09:58:12.554Z,4.83
2022-11-10T10:00:40.551Z,10.13
2022-11-10T10:03:09.590Z,10.93
2022-11-10T10:05:41.914Z,4.40
2022-11-10T10:08:19.900Z,9.83
2022-11-10T10:11:05.239Z,12.73
2022-11-10T10:13:48.605Z,7.27
2022-11-10T10:16:38.219Z,6.27
2022-11-10T10:19:25.642Z,7.47
2022-11-10T10:22:01.109Z,6.20
2022-11-10T10:24:28.034Z,5.83
2022-11-10T10:26:58.577Z,8.10
2022-11-10T10:29:36.921Z,5.03
2022-11-10T10:32:04.174Z,4.10
2022-11-10T10:34:34.442Z,8.50
2022-11-10T10:37:01.037Z,8.23
2022-11-10T10:39:34.920Z,9.63
2022-11-10T10:42:01.490Z,8.27
2022-11-10T10:44:27.927Z,7.37
2022-11-10T10:47:01.052Z,5.23
2022-11-10T10:49:33.775Z,9.00
2022-11-10T10:52:09.933Z,6.13
2022-11-10T10:54:38.200Z,5.90
2022-11-10T10:57:20.003Z,7.07
2022-11-10T10:59:47.023Z,4.77
2022-11-10T11:02:27.696Z,5.20
2022-11-10T11:05:11.749Z,4.70
2022-11-10T11:07:38.577Z,5.30
2022-11-10T11:10:19.363Z,4.57
2022-11-10T11:12:45.889Z,3.77
2022-11-10T11:15:28.700Z,5.43
2022-11-10T11:17:56.986Z,3.13
2022-11-10T11:20:35.104Z,3.83
2022-11-10T11:23:31.627Z,4.60
2022-11-10T11:26:11.651Z,8.40
2022-11-10T11:28:52.687Z,9.50
2022-11-10T11:31:42.902Z,6.30
2022-11-10T11:34:32.545Z,6.47
2022-11-10T11:37:29.716Z,5.03
2022-11-10T11:40:14.388Z,5.30
2022-11-10T11:42:52.984Z,5.10
2022-11-10T11:45:50.428Z,5.73
2022-11-10T11:48:35.414Z,5.40
2022-11-10T11:51:08.386Z,6.83
2022-11-10T11:53:52.147Z,4.40
2022-11-10T11:56:24.416Z,4.60
2022-11-10T11:59:20.858Z,3.60
2022-11-10T12:02:42.400Z,4.27
2022-11-10T12:05:31.285Z,5.93
2022-11-10T12:08:01.337Z,6.70
2022-11-10T12:10:51.249Z,6.40
2022-11-10T12:13:48.379Z,4.40
2022-11-10T12:16:25.897Z,8.27
2022-11-10T12:18:58.405Z,4.03
2022-11-10T12:21:33.099Z,4.87
2022-11-10T12:24:27.567Z,7.03
2022-11-10T12:26:58.945Z,3.23
2022-11-10T12:29:43.608Z,5.40
2022-11-10T12:32:22.301Z,5.87
2022-11-10T12:35:02.162Z,3.30
2022-11-10T12:37:35.211Z,2.77
2022-11-10T12:40:24.787Z,3.90
2022-11-10T12:43:03.355Z,5.20
2022-11-10T12:45:40.396Z,3.77
2022-11-10T12:48:11.406Z,6.83
2022-11-10T12:51:13.749Z,7.40
2022-11-10T12:53:42.757Z,6.60
2022-11-10T12:56:17.975Z,3.97
2022-11-10T12:58:44.399Z,2.77
2022-11-10T13:01:19.654Z,5.17
2022-11-10T13:03:59.043Z,3.50
2022-11-10T13:06:35.757Z,3.20
2022-11-10T13:09:03.178Z,4.10
2022-11-10T13:11:36.566Z,4.57
2022-11-10T13:14:05.172Z,4.13
2022-11-10T13:16:40.498Z,5.07
2022-11-10T13:19:33.913Z,6.97
2022-11-10T13:22:00.687Z,4.13
2022-11-10T13:24:29.327Z,4.00
2022-11-10T13:26:58.115Z,8.70
2022-11-10T13:29:47.295Z,2.33
2022-11-10T13:32:13.644Z,3.73
2022-11-10T13:34:44.498Z,5.93
2022-11-10T13:37:29.576Z,6.17
2022-11-10T13:40:25.221Z,2.20
2022-11-10T13:42:57.393Z,4.43
2022-11-10T13:45:42.004Z,6.67
2022-11-10T13:48:11.092Z,3.00
2022-11-10T13:51:02.368Z,5.47
2022-11-10T13:53:55.355Z,4.13
2022-11-10T13:56:39.612Z,3.20
2022-11-10T13:59:24.759Z,2.57
2022-11-10T14:01:51.175Z,5.47
2022-11-10T14:04:35.766Z,5.33
2022-11-10T14:07:04.838Z,4.23
2022-11-10T14:09:39.506Z,4.77
2022-11-10T14:12:19.990Z,6.40
2022-11-10T14:14:52.727Z,2.80
2022-11-10T14:17:23.977Z,5.03
2022-11-10T14:19:50.332Z,4.60
2022-11-10T14:22:34.905Z,2.50
2022-11-10T14:25:25.299Z,3.93
2022-11-10T14:27:57.726Z,4.73
2022-11-10T14:30:26.662Z,4.87
2022-11-10T14:33:14.001Z,3.83
2022-11-10T14:35:57.809Z,5.13
2022-11-10T14:38:27.229Z,6.10
2022-11-10T14:40:56.537Z,5.43
2022-11-10T14:43:39.528Z,4.73
2022-11-10T14:46:07.820Z,4.17
2022-11-10T14:48:36.621Z,4.73
2022-11-10T14:51:06.946Z,4.47
2022-11-10T14:53:37.012Z,4.87
2022-11-10T14:56:14.848Z,6.17
2022-11-10T14:58:42.991Z,7.13
2022-11-10T15:01:27.457Z,8.70
2022-11-10T15:03:54.793Z,5.67
2022-11-10T15:06:21.677Z,6.63
2022-11-10T15:08:48.243Z,2.70
2022-11-10T15:11:33.499Z,4.10
2022-11-10T15:13:59.930Z,4.60
2022-11-10T15:16:28.758Z,8.67
2022-11-10T15:18:57.382Z,7.93
2022-11-10T15:21:33.727Z,7.03
2022-11-10T15:24:03.060Z,6.77
2022-11-10T15:26:37.770Z,6.87
2022-11-10T15:29:04.282Z,9.43
2022-11-10T15:31:32.437Z,7.00
2022-11-10T15:34:01.594Z,9.50
2022-11-10T15:36:34.459Z,8.13
2022-11-10T15:39:25.031Z,6.23
2022-11-10T15:41:57.747Z,8.20
2022-11-10T15:44:25.052Z,7.90
2022-11-10T15:46:54.259Z,10.03
2022-11-10T15:49:25.211Z,9.10
2022-11-10T15:51:52.883Z,10.40
2022-11-10T15:54:22.501Z,6.20
2022-11-10T15:56:48.980Z,9.20
2022-11-10T15:59:15.554Z,10.33
2022-11-10T16:01:42.125Z,8.17
2022-11-10T16:04:12.241Z,9.13
2022-11-10T16:06:39.757Z,4.90
2022-11-10T16:09:06.949Z,5.13
2022-11-10T16:11:38.598Z,8.20
2022-11-10T16:14:05.793Z,5.60
2022-11-10T16:16:32.674Z,9.07
2022-11-10T16:18:59.134Z,7.70
2022-11-10T16:21:26.131Z,8.77
2022-11-10T16:23:53.322Z,5.73
2022-11-10T16:26:25.060Z,6.20
2022-11-10T16:28:51.808Z,9.10
2022-11-10T16:31:21.888Z,7.90
2022-11-10T16:33:49.276Z,8.00
2022-11-10T16:36:27.734Z,9.00
2022-11-10T16:38:55.064Z,11.10
2022-11-10T16:41:21.924Z,11.13
2022-11-10T16:43:48.493Z,11.90
2022-11-10T16:46:29.859Z,6.83
2022-11-10T16:48:59.096Z,11.63
2022-11-10T16:51:31.150Z,10.57
2022-11-10T16:53:59.440Z,10.60
2022-11-10T16:56:26.813Z,10.17
2022-11-10T16:58:53.570Z,8.40
2022-11-10T17:01:23.836Z,10.53
2022-11-10T17:03:54.075Z,9.50
2022-11-10T17:06:23.199Z,14.20
2022-11-10T17:08:52.264Z,12.80
2022-11-10T17:11:19.116Z,10.07
2022-11-10T17:13:45.947Z,11.63
2022-11-10T17:16:45.436Z,10.53
2022-11-10T17:19:17.617Z,20.03
2022-11-10T17:21:44.852Z,13.23
2022-11-10T17:24:14.087Z,12.87
2022-11-10T17:26:41.068Z,15.33
2022-11-10T17:29:15.372Z,10.80
2022-11-10T17:31:41.810Z,13.63
2022-11-10T17:34:08.206Z,9.10
2022-11-10T17:36:35.024Z,10.33
2022-11-10T17:39:01.492Z,10.47
2022-11-10T17:41:28.142Z,10.47
2022-11-10T17:43:54.640Z,9.30
2022-11-10T17:46:21.021Z,11.10
2022-11-10T17:48:47.794Z,11.00
2022-11-10T17:51:19.651Z,10.23
2022-11-10T17:53:46.124Z,9.30
2022-11-10T17:56:13.102Z,12.47
2022-11-10T17:58:39.474Z,10.07
2022-11-10T18:01:18.466Z,11.43
2022-11-10T18:03:46.493Z,12.60
2022-11-10T18:06:14.627Z,9.17
2022-11-10T18:08:41.841Z,9.47
2022-11-10T18:11:10.441Z,7.70
2022-11-10T18:13:40.725Z,8.40
2022-11-10T18:16:08.980Z,8.23
2022-11-10T18:18:36.357Z,8.80
2022-11-10T18:21:03.641Z,9.03
2022-11-10T18:23:30.244Z,8.17
2022-11-10T18:26:03.549Z,7.83
2022-11-10T18:28:29.993Z,8.90
2022-11-10T18:30:56.472Z,10.47
2022-11-10T18:33:23.168Z,11.20
2022-11-10T18:35:49.781Z,13.43
2022-11-10T18:38:16.219Z,11.40
2022-11-10T18:40:42.621Z,11.40
2022-11-10T18:43:09.053Z,8.07
2022-11-10T18:45:36.209Z,8.33
2022-11-10T18:48:03.706Z,11.50
2022-11-10T18:50:30.659Z,6.47
2022-11-10T18:52:57.481Z,6.53
2022-11-10T18:55:24.051Z,7.43
2022-11-10T18:57:50.456Z,8.13
2022-11-10T19:00:17.023Z,15.27
2022-11-10T19:02:43.391Z,10.50
2022-11-10T19:05:09.805Z,10.87
2022-11-10T19:07:36.185Z,7.97
2022-11-10T19:10:02.766Z,6.90
2022-11-10T19:12:29.425Z,7.90
2022-11-10T19:14:55.861Z,11.40
2022-11-10T19:17:22.286Z,6.13
2022-11-10T19:19:53.491Z,6.60
2022-11-10T19:22:22.571Z,9.17
2022-11-10T19:25:06.989Z,7.37
2022-11-10T19:27:34.321Z,10.20
2022-11-10T19:30:00.865Z,10.27
2022-11-10T19:32:27.293Z,9.40
2022-11-10T19:34:53.777Z,7.03
2022-11-10T19:37:20.434Z,8.20
2022-11-10T19:39:46.805Z,11.00
2022-11-10T19:42:13.179Z,11.20
2022-11-10T19:44:39.631Z,8.90
2022-11-10T19:47:06.241Z,8.33
2022-11-10T19:49:32.905Z,12.27
2022-11-10T19:51:59.302Z,41.00
2022-11-10T19:54:25.684Z,27.33
2022-11-10T19:56:52.044Z,12.20
2022-11-10T19:59:20.728Z,10.37
2022-11-10T20:01:47.232Z,11.73
2022-11-10T20:04:13.942Z,8.53
2022-11-10T20:06:40.445Z,7.67
2022-11-10T20:09:06.909Z,11.60
2022-11-10T20:11:33.694Z,11.20
2022-11-10T20:14:05.475Z,8.33
2022-11-10T20:16:31.861Z,7.10
2022-11-10T20:18:58.245Z,9.30
2022-11-10T20:21:24.695Z,9.73
2022-11-10T20:23:55.086Z,13.63
2022-11-10T20:26:21.974Z,8.27
2022-11-10T20:28:48.337Z,8.87
2022-11-10T20:31:20.236Z,12.73
2022-11-10T20:33:51.313Z,9.47
2022-11-10T20:36:29.635Z,10.27
2022-11-10T20:38:59.128Z,10.50
2022-11-10T20:41:27.281Z,10.60
2022-11-10T20:43:54.869Z,10.50
2022-11-10T20:46:48.094Z,11.77
2022-11-10T20:49:08.872Z,13.10
2022-11-10T20:51:35.270Z,11.37
2022-11-10T20:54:01.774Z,10.23
2022-11-10T20:56:29.859Z,9.53
2022-11-10T20:58:57.555Z,9.70
2022-11-10T21:01:24.602Z,13.40
2022-11-10T21:03:51.369Z,16.57
2022-11-10T21:06:17.845Z,14.97
2022-11-10T21:08:44.300Z,13.60
2022-11-10T21:11:11.335Z,15.27
2022-11-10T21:13:38.286Z,17.40
2022-11-10T21:16:06.442Z,12.83
2022-11-10T21:18:35.237Z,15.53
2022-11-10T21:21:02.050Z,10.80
2022-11-10T21:23:28.548Z,12.87
2022-11-10T21:25:59.577Z,14.67
2022-11-10T21:28:26.557Z,15.00
2022-11-10T21:31:03.564Z,14.13
2022-11-10T21:33:30.024Z,13.37
2022-11-10T21:35:56.452Z,11.93
2022-11-10T21:38:22.893Z,15.63
2022-11-10T21:40:49.310Z,14.23
2022-11-10T21:43:15.748Z,15.33
2022-11-10T21:45:42.151Z,10.70
2022-11-10T21:48:08.825Z,12.77
2022-11-10T21:50:35.253Z,13.37
2022-11-10T21:53:05.379Z,10.37
2022-11-10T21:55:31.738Z,11.43
2022-11-10T21:57:59.156Z,11.00
2022-11-10T22:00:26.747Z,15.77
2022-11-10T22:02:58.271Z,11.60
2022-11-10T22:05:24.810Z,11.30
2022-11-10T22:07:51.250Z,10.30
2022-11-10T22:10:37.960Z,8.40
2022-11-10T22:13:23.176Z,8.70
2022-11-10T22:16:08.534Z,17.40
2022-11-10T22:18:37.871Z,8.57
2022-11-10T22:21:05.643Z,9.03
2022-11-10T22:23:50.874Z,7.07
2022-11-10T22:26:18.159Z,9.13
2022-11-10T22:28:45.584Z,10.60
2022-11-10T22:31:12.853Z,9.13
2022-11-10T22:33:42.421Z,8.33
2022-11-10T22:36:12.242Z,6.90
2022-11-10T22:38:40.518Z,8.67
2022-11-10T22:41:31.151Z,12.57
2022-11-10T22:44:03.711Z,8.23
2022-11-10T22:46:32.283Z,7.97
2022-11-10T22:48:58.716Z,9.50
2022-11-10T22:51:28.395Z,8.00
2022-11-10T22:53:54.953Z,6.60
2022-11-10T22:56:21.338Z,9.30
2022-11-10T22:58:47.798Z,8.43
2022-11-10T23:01:14.514Z,11.93
2022-11-10T23:03:41.006Z,10.30
2022-11-10T23:06:07.669Z,7.70
2022-11-10T23:08:34.716Z,9.20
2022-11-10T23:11:04.017Z,13.53
2022-11-10T23:13:32.207Z,11.40
2022-11-10T23:16:12.638Z,13.87
2022-11-10T23:18:40.908Z,19.17
2022-11-10T23:21:09.941Z,12.80
2022-11-10T23:23:38.366Z,12.63
2022-11-10T23:26:08.207Z,8.23
2022-11-10T23:28:35.689Z,11.20
2022-11-10T23:31:11.915Z,9.30
2022-11-10T23:33:40.437Z,7.60
2022-11-10T23:36:08.976Z,11.43
2022-11-10T23:38:36.926Z,10.33
2022-11-10T23:41:04.688Z,9.10
2022-11-10T23:43:31.651Z,10.07
2022-11-10T23:46:07.244Z,7.40
2022-11-10T23:48:35.277Z,10.57
2022-11-10T23:51:01.827Z,11.00
2022-11-10T23:53:28.304Z,8.00
2022-11-10T23:55:59.323Z,14.87
2022-11-10T23:58:26.177Z,13.80
